Terminal Aerodrome Forecast
Issued by NWS Cleveland, OH

Home | Current Version | Previous Version | Graphics & Text | Print | Product List | Glossary On
Versions: 1 2 3 4 5 6 7 8 9 10 11 12 13 14 15 16 17 18 19 20 21 22 23 24 25 26 27 28 29 30
000
FTUS41 KCLE 021518 AAE
TAFCLE
TAF AMD
KCLE 021518Z 0215/0318 04010KT 3SM BR OVC003
     FM021600 03010KT P6SM OVC007
     FM021800 02008KT P6SM OVC015
     FM030100 04005KT P6SM OVC035
     FM030900 VRB02KT P6SM OVC025
     FM031200 VRB04KT P6SM OVC035=

USA.gov is the U.S. government's official web portal to all federal, state and local government web resources and services.